createdAt,value
2022-11-13T00:00:57.661Z,111.73
2022-11-13T00:03:24.308Z,69.93
2022-11-13T00:08:48.370Z,67.25
2022-11-13T00:11:20.032Z,70.97
2022-11-13T00:13:57.899Z,80.17
2022-11-13T00:16:49.294Z,87.90
2022-11-13T00:19:22.170Z,66.60
2022-11-13T00:21:48.907Z,75.07
2022-11-13T00:24:18.932Z,64.30
2022-11-13T00:26:57.257Z,69.00
2022-11-13T00:29:31.060Z,76.83
2022-11-13T00:32:05.770Z,72.10
2022-11-13T00:37:15.765Z,68.37
2022-11-13T00:39:42.502Z,62.90
2022-11-13T00:42:09.230Z,62.43
2022-11-13T00:44:53.178Z,64.87
2022-11-13T00:47:29.384Z,60.60
2022-11-13T00:49:56.071Z,63.67
2022-11-13T00:52:25.881Z,66.50
2022-11-13T00:54:52.810Z,64.93
2022-11-13T00:57:24.699Z,67.57
2022-11-13T00:59:54.860Z,57.40
2022-11-13T01:02:23.909Z,70.40
2022-11-13T01:04:50.634Z,60.50
2022-11-13T01:07:19.679Z,71.83
2022-11-13T01:09:50.190Z,67.03
2022-11-13T01:12:19.052Z,67.73
2022-11-13T01:14:45.713Z,60.07
2022-11-13T01:17:12.309Z,72.20
2022-11-13T01:19:38.907Z,50.83
2022-11-13T01:22:05.466Z,63.60
2022-11-13T01:24:32.000Z,61.33
2022-11-13T01:26:58.604Z,57.67
2022-11-13T01:29:25.295Z,51.40
2022-11-13T01:31:51.837Z,55.20
2022-11-13T01:34:18.411Z,57.60
2022-11-13T01:36:44.925Z,50.10
2022-11-13T01:39:11.947Z,51.80
2022-11-13T01:41:38.545Z,62.27
2022-11-13T01:44:06.515Z,49.20
2022-11-13T01:46:36.784Z,49.27
2022-11-13T01:49:09.384Z,51.17
2022-11-13T01:51:49.789Z,55.97
2022-11-13T01:54:17.477Z,57.63
2022-11-13T01:56:44.007Z,50.50
2022-11-13T01:59:14.829Z,46.27
2022-11-13T02:01:41.516Z,56.57
2022-11-13T02:04:08.290Z,66.20
2022-11-13T02:06:42.722Z,45.70
2022-11-13T02:09:09.295Z,65.77
2022-11-13T02:11:36.175Z,51.80
2022-11-13T02:14:02.822Z,50.70
2022-11-13T02:16:30.137Z,59.50
2022-11-13T02:18:56.676Z,66.37
2022-11-13T02:21:23.340Z,66.00
2022-11-13T02:23:59.802Z,61.70
2022-11-13T02:26:28.750Z,68.93
2022-11-13T02:28:55.348Z,62.10
2022-11-13T02:31:22.031Z,66.33
2022-11-13T02:33:48.583Z,64.50
2022-11-13T02:36:15.289Z,75.27
2022-11-13T02:38:41.968Z,73.30
2022-11-13T02:41:08.506Z,59.53
2022-11-13T02:43:35.127Z,76.47
2022-11-13T02:46:01.663Z,77.67
2022-11-13T02:48:28.678Z,67.80
2022-11-13T02:50:56.351Z,72.60
2022-11-13T02:53:22.925Z,69.13
2022-11-13T02:55:51.860Z,66.57
2022-11-13T02:58:19.485Z,71.77
2022-11-13T03:00:46.142Z,70.30
2022-11-13T03:03:12.712Z,66.83
2022-11-13T03:05:39.310Z,66.10
2022-11-13T03:08:06.414Z,68.70
2022-11-13T03:10:33.004Z,67.77
2022-11-13T03:12:59.584Z,62.67
2022-11-13T03:15:26.225Z,67.70
2022-11-13T03:17:52.960Z,60.13
2022-11-13T03:20:19.691Z,61.57
2022-11-13T03:22:46.344Z,60.60
2022-11-13T03:25:14.434Z,56.17
2022-11-13T03:27:40.992Z,56.70
2022-11-13T03:30:09.339Z,52.90
2022-11-13T03:32:35.964Z,53.40
2022-11-13T03:35:02.546Z,54.20
2022-11-13T03:37:32.048Z,52.83
2022-11-13T03:39:58.590Z,54.70
2022-11-13T03:42:25.161Z,51.43
2022-11-13T03:44:51.755Z,56.53
2022-11-13T03:47:18.292Z,53.23
2022-11-13T03:49:44.889Z,55.20
2022-11-13T03:52:11.409Z,57.70
2022-11-13T03:54:38.000Z,52.43
2022-11-13T03:57:04.535Z,58.13
2022-11-13T03:59:31.172Z,60.80
2022-11-13T04:01:57.798Z,56.07
2022-11-13T04:04:24.563Z,55.87
2022-11-13T04:06:51.196Z,61.10
2022-11-13T04:09:17.781Z,53.67
2022-11-13T04:11:44.476Z,51.70
2022-11-13T04:14:11.041Z,52.10
2022-11-13T04:16:37.719Z,57.70
2022-11-13T04:19:04.307Z,53.20
2022-11-13T04:21:30.906Z,53.80
2022-11-13T04:23:57.611Z,54.17
2022-11-13T04:26:24.367Z,57.57
2022-11-13T04:28:51.106Z,55.87
2022-11-13T04:31:17.683Z,49.23
2022-11-13T04:33:47.052Z,58.00
2022-11-13T04:36:13.659Z,52.83
2022-11-13T04:38:40.231Z,54.87
2022-11-13T04:41:26.936Z,55.13
2022-11-13T04:43:53.487Z,55.20
2022-11-13T04:46:20.046Z,52.63
2022-11-13T04:48:46.674Z,58.37
2022-11-13T04:51:13.315Z,53.47
2022-11-13T04:53:39.949Z,52.90
2022-11-13T04:56:06.758Z,65.10
2022-11-13T04:58:33.361Z,60.93
2022-11-13T05:01:00.032Z,61.93
2022-11-13T05:03:26.923Z,63.33
2022-11-13T05:05:54.137Z,68.83
2022-11-13T05:08:20.755Z,70.67
2022-11-13T05:10:47.403Z,66.73
2022-11-13T05:13:16.279Z,69.37
2022-11-13T05:15:42.954Z,72.30
2022-11-13T05:18:09.491Z,74.40
2022-11-13T05:20:36.044Z,66.20
2022-11-13T05:23:02.576Z,74.80
2022-11-13T05:25:29.370Z,76.23
2022-11-13T05:27:57.394Z,69.17
2022-11-13T05:30:24.126Z,74.87
2022-11-13T05:32:51.644Z,75.87
2022-11-13T05:35:18.519Z,79.87
2022-11-13T05:37:45.223Z,74.67
2022-11-13T05:40:12.269Z,75.47
2022-11-13T05:42:38.895Z,71.23
2022-11-13T05:45:05.557Z,74.20
2022-11-13T05:47:34.778Z,75.47
2022-11-13T05:50:01.321Z,70.77
2022-11-13T05:52:29.883Z,72.93
2022-11-13T05:54:58.494Z,76.17
2022-11-13T05:57:25.202Z,69.13
2022-11-13T05:59:51.749Z,74.43
2022-11-13T06:02:19.456Z,80.33
2022-11-13T06:04:46.239Z,77.73
2022-11-13T06:07:12.941Z,78.93
2022-11-13T06:09:39.965Z,67.10
2022-11-13T06:12:06.862Z,63.97
2022-11-13T06:14:33.507Z,66.23
2022-11-13T06:17:00.146Z,65.00
2022-11-13T06:19:31.506Z,64.07
2022-11-13T06:21:58.149Z,61.40
2022-11-13T06:24:24.767Z,66.43
2022-11-13T06:26:51.414Z,69.17
2022-11-13T06:29:18.089Z,57.90
2022-11-13T06:31:47.767Z,62.17
2022-11-13T06:34:14.393Z,60.60
2022-11-13T06:36:42.175Z,69.60
2022-11-13T06:39:09.272Z,63.07
2022-11-13T06:41:36.054Z,64.97
2022-11-13T06:44:04.215Z,70.53
2022-11-13T06:46:33.758Z,59.63
2022-11-13T07:40:11.841Z,59.40
2022-11-13T08:53:16.961Z,42.83
2022-11-13T09:01:08.910Z,48.33
2022-11-13T09:09:08.643Z,52.80
2022-11-13T09:29:04.660Z,45.50
2022-11-13T09:31:33.645Z,42.50
2022-11-13T12:29:41.090Z,51.47
2022-11-13T13:45:25.822Z,53.47
2022-11-13T13:47:52.633Z,51.10
2022-11-13T14:08:11.853Z,59.83
2022-11-13T14:10:54.452Z,56.53
2022-11-13T14:32:30.266Z,62.50
2022-11-13T14:54:07.492Z,65.90
2022-11-13T14:56:36.544Z,69.93
2022-11-13T14:59:26.359Z,65.97
2022-11-13T15:02:00.294Z,67.43
2022-11-13T15:50:40.894Z,79.73
2022-11-13T15:53:09.133Z,73.80
2022-11-13T15:55:35.694Z,86.90
2022-11-13T15:58:05.916Z,89.30
2022-11-13T16:00:33.653Z,86.43
2022-11-13T16:03:03.157Z,78.83
2022-11-13T16:08:25.419Z,80.10
2022-11-13T16:33:27.868Z,73.33
2022-11-13T17:21:51.103Z,85.03
2022-11-13T17:35:19.468Z,80.75
2022-11-13T18:15:46.957Z,92.87
2022-11-13T18:29:01.239Z,109.00
2022-11-13T18:31:31.224Z,100.67
2022-11-13T18:34:25.456Z,96.03
2022-11-13T18:37:01.558Z,100.37
2022-11-13T18:39:50.137Z,99.77
2022-11-13T18:42:23.594Z,92.10
2022-11-13T18:47:34.406Z,99.80
2022-11-13T18:50:00.915Z,100.23
2022-11-13T18:52:43.767Z,95.10
2022-11-13T18:58:31.768Z,95.77
2022-11-13T19:01:07.619Z,97.00
2022-11-13T19:03:34.256Z,100.13
2022-11-13T19:06:00.844Z,95.93
2022-11-13T19:08:27.595Z,90.73
2022-11-13T19:10:54.485Z,97.87
2022-11-13T19:13:23.506Z,97.30
2022-11-13T19:16:07.011Z,101.50
2022-11-13T19:18:40.412Z,106.77
2022-11-13T19:21:23.891Z,121.93
2022-11-13T19:35:12.634Z,94.90
2022-11-13T19:37:39.217Z,99.23
2022-11-13T19:40:09.948Z,104.37
2022-11-13T19:42:40.772Z,106.77
2022-11-13T19:45:08.767Z,107.37
2022-11-13T19:47:35.536Z,100.77
2022-11-13T19:50:02.357Z,100.77
2022-11-13T19:52:28.927Z,96.53
2022-11-13T19:54:58.425Z,95.33
2022-11-13T19:57:25.078Z,88.63
2022-11-13T19:59:51.790Z,80.13
2022-11-13T20:02:18.306Z,83.07
2022-11-13T20:04:44.889Z,78.90
2022-11-13T20:07:11.721Z,77.40
2022-11-13T20:09:38.497Z,72.23
2022-11-13T20:12:12.480Z,76.87
2022-11-13T20:14:39.245Z,77.07
2022-11-13T20:17:07.477Z,79.43
2022-11-13T20:45:37.835Z,76.20
2022-11-13T20:48:11.479Z,76.50
2022-11-13T20:50:42.946Z,76.20
2022-11-13T20:53:09.808Z,70.80
2022-11-13T20:55:50.059Z,76.50
2022-11-13T21:03:54.210Z,72.33
2022-11-13T21:06:21.649Z,80.40
2022-11-13T21:08:48.214Z,69.80
2022-11-13T21:11:19.084Z,70.00
